Time;durP1;ratioP1;P1;durP2;ratioP2;P2;SDS_P1;SDS_P2;PMS_P1;PMS_P2;Temp;Humidity;BMP_temperature;BMP_pressure;BME280_temperature;BME280_humidity;BME280_pressure;Samples;Min_cycle;Max_cycle;Signal;HPM_P1;HPM_P2
2024/04/05 00:02:23;;;;;;;;;;;11.80;99.90;;;11.20;100.00;97721.13;5006601;28;1714;-70
2024/04/05 00:04:49;;;;;;;;;;;11.80;99.90;;;11.34;100.00;97714.50;5014110;28;1845;-70
2024/04/05 00:07:15;;;;;;;;;;;11.90;99.90;;;11.30;100.00;97724.16;5028320;28;1989;-70
2024/04/05 00:09:41;;;;;;;;;;;11.90;99.90;;;11.31;100.00;97720.63;5030238;28;1611;-70
2024/04/05 00:12:07;;;;;;;;;;;11.90;99.90;;;11.28;100.00;97718.19;5028776;28;1926;-70
2024/04/05 00:14:33;;;;;;;;;;;11.90;99.90;;;11.42;100.00;97730.56;5030110;28;1614;-70
2024/04/05 00:16:59;;;;;;;;;;;11.80;99.90;;;11.37;100.00;97722.16;5028966;28;1686;-70
2024/04/05 00:19:25;;;;;;;;;;;11.80;99.90;;;11.29;100.00;97723.31;5025329;28;2298;-70
2024/04/05 00:21:51;;;;;;;;;;;11.80;99.90;;;11.32;100.00;97717.16;5016604;28;1916;-70
2024/04/05 00:24:17;;;;;;;;;;;11.90;99.90;;;11.30;100.00;97724.16;5028665;28;1580;-71
2024/04/05 00:26:42;;;;;;;;;;;11.90;99.90;;;11.28;100.00;97723.38;5028931;28;1776;-70
2024/04/05 00:29:09;;;;;;;;;;;11.90;99.90;;;11.38;100.00;97723.81;5021580;28;1650;-70
2024/04/05 00:31:36;;;;;;;;;;;11.90;99.90;;;11.34;100.00;97725.72;5028430;28;1550;-70
2024/04/05 00:34:01;;;;;;;;;;;11.90;99.90;;;11.32;100.00;97724.09;5031926;28;1977;-70
2024/04/05 00:36:27;;;;;;;;;;;11.90;99.90;;;11.35;100.00;97721.34;5027852;28;3054;-70
2024/04/05 00:38:54;;;;;;;;;;;11.90;99.90;;;11.34;100.00;97728.31;5028566;28;1590;-71
2024/04/05 00:41:20;;;;;;;;;;;11.90;99.90;;;11.29;100.00;97731.13;5029648;28;1625;-70
2024/04/05 00:43:46;;;;;;;;;;;11.90;99.90;;;11.35;100.00;97730.00;5029657;28;1615;-70
2024/04/05 00:46:12;;;;;;;;;;;11.90;99.90;;;11.32;100.00;97724.94;5030202;28;1838;-70
2024/04/05 00:48:39;;;;;;;;;;;11.90;99.90;;;11.36;100.00;97729.09;5014913;28;1615;-70
2024/04/05 00:51:06;;;;;;;;;;;11.90;99.90;;;11.35;100.00;97717.00;5015118;28;1626;-70
2024/04/05 00:53:32;;;;;;;;;;;11.90;99.90;;;11.37;100.00;97720.38;5011167;28;1902;-70
2024/04/05 00:56:00;;;;;;;;;;;11.90;99.90;;;11.35;100.00;97710.97;4997295;28;1506;-70
2024/04/05 00:58:27;;;;;;;;;;;11.90;99.90;;;11.37;100.00;97707.38;5012615;28;1519;-70
2024/04/05 01:00:53;;;;;;;;;;;11.90;99.90;;;11.38;100.00;97711.69;5030216;28;1511;-70
2024/04/05 01:03:19;;;;;;;;;;;11.90;99.90;;;11.41;100.00;97705.50;5031239;28;2422;-70
2024/04/05 01:05:48;;;;;;;;;;;11.90;99.90;;;11.36;100.00;97707.44;5012200;28;1307;-71
2024/04/05 01:08:16;;;;;;;;;;;12.00;99.90;;;11.36;100.00;97703.13;5028666;28;1571;-71
2024/04/05 01:10:43;;;;;;;;;;;12.00;99.90;;;11.36;100.00;97702.25;5029233;28;1527;-70
2024/04/05 01:13:10;;;;;;;;;;;12.00;99.90;;;11.45;100.00;97718.31;5029233;28;1898;-71
2024/04/05 01:15:37;;;;;;;;;;;12.00;99.90;;;11.45;100.00;97714.88;5027955;28;1706;-70
2024/04/05 01:18:04;;;;;;;;;;;11.90;99.90;;;11.42;100.00;97714.97;5026807;28;3184;-70
2024/04/05 01:20:31;;;;;;;;;;;12.00;99.90;;;11.40;100.00;97715.03;5013019;28;1536;-71
2024/04/05 01:23:04;;;;;;;;;;;12.00;99.90;;;11.51;100.00;97712.81;5029304;28;1610;-70
2024/04/05 01:25:31;;;;;;;;;;;12.00;99.90;;;11.46;100.00;97706.16;5029303;28;1626;-70
2024/04/05 01:27:59;;;;;;;;;;;12.00;99.90;;;11.37;100.00;97702.19;5024522;28;1602;-71
2024/04/05 01:30:25;;;;;;;;;;;12.00;99.90;;;11.38;100.00;97692.63;5046660;28;1669;-70
2024/04/05 01:32:59;;;;;;;;;;;12.00;99.90;;;11.29;100.00;97699.94;5027166;28;1981;-70
2024/04/05 01:35:25;;;;;;;;;;;11.90;99.90;;;11.30;100.00;97696.41;5006527;28;2276;-70
2024/04/05 01:37:50;;;;;;;;;;;11.90;99.90;;;11.23;100.00;97702.78;5030020;28;1616;-71
2024/04/05 01:40:16;;;;;;;;;;;11.80;99.90;;;11.26;100.00;97699.22;5033338;28;1605;-70
2024/04/05 01:42:42;;;;;;;;;;;11.80;99.90;;;11.16;100.00;97690.97;5026717;28;1764;-71
2024/04/05 01:45:08;;;;;;;;;;;11.80;99.90;;;11.19;100.00;97701.22;5027168;28;1621;-70
2024/04/05 01:47:34;;;;;;;;;;;11.70;99.90;;;11.17;100.00;97691.81;5028226;28;1584;-70
2024/04/05 01:50:04;;;;;;;;;;;11.70;99.90;;;11.09;100.00;97689.56;5027829;28;1938;-70
2024/04/05 01:52:30;;;;;;;;;;;11.70;99.90;;;11.06;100.00;97698.34;5014082;28;2909;-70
2024/04/05 01:54:56;;;;;;;;;;;11.70;99.90;;;11.06;100.00;97689.66;5030004;28;1949;-70
2024/04/05 01:57:22;;;;;;;;;;;11.70;99.90;;;11.02;100.00;97695.94;5012560;28;3657;-70
2024/04/05 01:59:53;;;;;;;;;;;11.60;99.90;;;10.98;100.00;97687.41;5045804;28;1614;-71
2024/04/05 02:02:20;;;;;;;;;;;11.60;99.90;;;10.98;100.00;97690.00;5026375;28;1637;-70
2024/04/05 02:04:46;;;;;;;;;;;11.60;99.90;;;10.95;100.00;97684.09;5012778;28;1467;-70
2024/04/05 02:07:12;;;;;;;;;;;11.60;99.90;;;10.95;100.00;97684.09;5029051;28;1675;-70
2024/04/05 02:09:38;;;;;;;;;;;11.60;99.90;;;10.92;100.00;97681.63;5038013;28;1447;-70
2024/04/05 02:12:05;;;;;;;;;;;11.60;99.90;;;11.06;100.00;97702.66;5011844;28;2038;-70
2024/04/05 02:14:32;;;;;;;;;;;11.50;99.90;;;11.09;100.00;97703.38;5013549;28;1591;-71
2024/04/05 02:16:58;;;;;;;;;;;11.50;99.90;;;10.97;100.00;97706.50;5028763;28;1440;-70
2024/04/05 02:19:25;;;;;;;;;;;11.60;99.90;;;10.93;100.00;97699.75;5025571;28;1563;-70
2024/04/05 02:21:50;;;;;;;;;;;11.60;99.90;;;10.82;100.00;97694.16;5028246;28;1590;-70
2024/04/05 02:24:16;;;;;;;;;;;11.50;99.90;;;10.82;100.00;97700.19;5030128;28;1844;-70
2024/04/05 02:26:43;;;;;;;;;;;11.50;99.90;;;10.79;100.00;97696.91;5028740;28;2179;-70
2024/04/05 02:29:08;;;;;;;;;;;11.40;99.90;;;10.86;100.00;97701.75;5030125;28;2359;-70
2024/04/05 02:31:34;;;;;;;;;;;11.40;99.90;;;10.79;100.00;97691.69;5027663;28;1765;-70
2024/04/05 02:34:02;;;;;;;;;;;11.40;99.90;;;10.77;100.00;97691.75;5010143;28;1967;-70
2024/04/05 02:36:28;;;;;;;;;;;11.40;99.90;;;10.75;100.00;97695.31;5027458;28;1299;-71
2024/04/05 02:38:54;;;;;;;;;;;11.40;99.90;;;10.81;100.00;97700.25;5027844;28;1478;-70
2024/04/05 02:41:20;;;;;;;;;;;11.40;99.90;;;10.80;100.00;97701.16;5028451;28;3210;-70
2024/04/05 02:43:45;;;;;;;;;;;11.40;99.90;;;10.76;100.00;97697.00;5028090;28;1578;-70
2024/04/05 02:46:11;;;;;;;;;;;11.40;99.90;;;10.64;100.00;97696.59;5026111;28;1593;-70
2024/04/05 02:48:37;;;;;;;;;;;11.40;99.90;;;10.74;100.00;97697.09;5009678;28;1559;-70
2024/04/05 02:51:03;;;;;;;;;;;11.30;99.90;;;10.64;100.00;97695.75;5026292;28;1590;-70
2024/04/05 02:53:48;;;;;;;;;;;11.30;99.90;;;10.63;100.00;97701.88;5027151;28;1910;-71
2024/04/05 02:56:15;;;;;;;;;;;11.20;99.90;;;10.66;100.00;97694.78;5027229;28;2132;-70
2024/04/05 02:58:41;;;;;;;;;;;11.20;99.90;;;10.58;100.00;97685.63;5027711;28;1527;-70
2024/04/05 03:01:07;;;;;;;;;;;11.20;99.90;;;10.59;100.00;97685.56;5026154;28;1484;-70
2024/04/05 03:03:33;;;;;;;;;;;11.20;99.90;;;10.63;100.00;97688.91;5027501;28;1637;-70
2024/04/05 03:05:58;;;;;;;;;;;11.20;99.90;;;10.64;100.00;97698.34;5028885;28;1339;-71
2024/04/05 03:08:24;;;;;;;;;;;11.10;99.90;;;10.55;100.00;97693.53;5019355;28;1826;-70
2024/04/05 03:10:50;;;;;;;;;;;11.10;99.90;;;10.52;100.00;97699.72;5027937;28;2134;-70
2024/04/05 03:13:16;;;;;;;;;;;11.10;99.90;;;10.42;100.00;97701.84;5026748;28;2243;-70
2024/04/05 03:15:42;;;;;;;;;;;11.10;99.90;;;10.37;100.00;97695.13;5024600;28;2424;-70
2024/04/05 03:18:10;;;;;;;;;;;11.10;99.90;;;10.52;100.00;97699.72;5008450;28;1617;-70
2024/04/05 03:20:36;;;;;;;;;;;11.10;99.90;;;10.57;100.00;97704.72;5027418;28;1638;-71
2024/04/05 03:23:02;;;;;;;;;;;11.10;99.90;;;10.51;100.00;97694.56;5032151;28;1598;-70
2024/04/05 03:25:28;;;;;;;;;;;11.10;99.90;;;10.47;100.00;97696.47;5024773;28;1782;-70
2024/04/05 03:27:53;;;;;;;;;;;11.10;99.90;;;10.58;100.00;97696.00;5011459;28;1627;-70
2024/04/05 03:30:19;;;;;;;;;;;11.10;99.90;;;10.46;100.00;97687.81;5028427;28;1618;-70
2024/04/05 03:32:46;;;;;;;;;;;11.10;99.90;;;10.44;100.00;97676.63;5011027;28;3209;-71
2024/04/05 03:35:12;;;;;;;;;;;11.10;99.90;;;10.57;100.00;97679.59;5024630;28;1614;-71
2024/04/05 03:37:38;;;;;;;;;;;11.10;99.90;;;10.49;100.00;97673.03;5042937;28;1618;-70
2024/04/05 03:40:05;;;;;;;;;;;11.00;99.90;;;10.42;100.00;97680.22;5025257;28;1562;-70
2024/04/05 03:42:31;;;;;;;;;;;11.00;99.90;;;10.57;100.00;97671.81;5009165;28;1420;-70
2024/04/05 03:44:56;;;;;;;;;;;11.00;99.90;;;10.52;100.00;97675.50;5026894;28;1395;-71
2024/04/05 03:47:22;;;;;;;;;;;11.00;99.90;;;10.43;100.00;97664.59;5012987;28;2126;-70
2024/04/05 03:49:48;;;;;;;;;;;11.10;99.90;;;10.42;100.00;97656.84;5026254;28;1626;-70
2024/04/05 03:52:14;;;;;;;;;;;11.10;99.90;;;10.49;100.00;97658.31;5017759;28;2373;-70
2024/04/05 03:54:40;;;;;;;;;;;11.00;99.90;;;10.55;100.00;97650.25;5027251;28;1651;-71
2024/04/05 03:57:06;;;;;;;;;;;11.00;99.90;;;10.46;100.00;97646.28;5024815;28;1528;-70
2024/04/05 03:59:32;;;;;;;;;;;11.10;99.90;;;10.37;100.00;97640.63;5027503;28;1652;-70
2024/04/05 04:01:58;;;;;;;;;;;11.00;99.90;;;10.27;100.00;97651.34;5024620;28;1718;-71
2024/04/05 04:04:24;;;;;;;;;;;11.00;99.90;;;10.41;100.00;97652.59;5025817;28;1612;-71
2024/04/05 04:06:51;;;;;;;;;;;10.90;99.90;;;10.42;100.00;97647.34;5027120;28;1890;-71
2024/04/05 04:09:17;;;;;;;;;;;10.90;99.90;;;10.35;100.00;97661.44;5029815;28;1563;-70
2024/04/05 04:11:43;;;;;;;;;;;10.90;99.90;;;10.38;100.00;97653.56;5045264;28;1396;-71
2024/04/05 04:14:13;;;;;;;;;;;10.90;99.90;;;10.52;100.00;97660.78;5028774;28;2020;-70
2024/04/05 04:16:40;;;;;;;;;;;10.90;99.90;;;10.49;100.00;97660.03;5028785;28;1524;-70
2024/04/05 04:19:07;;;;;;;;;;;11.00;99.90;;;10.51;100.00;97656.47;5012504;28;1664;-70
2024/04/05 04:21:34;;;;;;;;;;;11.00;99.90;;;10.48;100.00;97659.22;5013462;28;3257;-71
2024/04/05 04:24:00;;;;;;;;;;;11.00;99.90;;;10.29;100.00;97648.75;5027051;28;1607;-70
2024/04/05 04:26:26;;;;;;;;;;;10.90;99.90;;;10.34;100.00;97654.56;5032925;28;1397;-70
2024/04/05 04:28:52;;;;;;;;;;;10.90;99.90;;;10.32;100.00;97658.16;5032095;28;1693;-71
2024/04/05 04:31:22;;;;;;;;;;;11.00;99.90;;;10.37;100.00;97651.84;5028263;28;1637;-70
2024/04/05 04:33:52;;;;;;;;;;;11.00;99.90;;;10.54;100.00;97653.78;5031323;28;1918;-71
2024/04/05 04:36:20;;;;;;;;;;;11.10;99.90;;;10.56;100.00;97644.19;5029054;28;2553;-70
2024/04/05 04:38:49;;;;;;;;;;;11.10;99.90;;;10.54;100.00;97637.38;5045389;28;1354;-71
2024/04/05 04:41:16;;;;;;;;;;;11.10;99.90;;;10.38;100.00;97634.56;5031028;28;1594;-71
2024/04/05 04:43:42;;;;;;;;;;;11.10;99.90;;;10.40;100.00;97636.19;5030374;28;1826;-71
2024/04/05 04:46:11;;;;;;;;;;;11.10;99.90;;;10.38;100.00;97643.19;5016477;28;1611;-70
2024/04/05 04:48:37;;;;;;;;;;;11.00;99.90;;;10.34;100.00;97635.59;5025812;28;2195;-71
2024/04/05 04:51:04;;;;;;;;;;;11.00;99.90;;;10.37;100.00;97632.84;5015266;28;1568;-71
2024/04/05 04:53:30;;;;;;;;;;;11.10;99.90;;;10.20;100.00;97629.16;5029210;28;2041;-71
2024/04/05 04:55:56;;;;;;;;;;;11.00;99.90;;;10.15;100.00;97627.63;5030936;28;1666;-70
2024/04/05 04:58:28;;;;;;;;;;;10.90;99.90;;;10.11;100.00;97639.91;5025192;28;1437;-70
2024/04/05 05:00:58;;;;;;;;;;;10.90;99.90;;;10.07;100.00;97645.28;5040576;28;1360;-70
2024/04/05 05:03:24;;;;;;;;;;;10.80;99.90;;;10.10;100.00;97645.97;5026278;28;3239;-70
2024/04/05 05:05:50;;;;;;;;;;;10.80;99.90;;;10.09;100.00;97646.91;5025705;28;1854;-70
2024/04/05 05:08:16;;;;;;;;;;;10.80;99.90;;;10.07;100.00;97640.09;5027304;28;1626;-71
2024/04/05 05:10:42;;;;;;;;;;;10.80;99.90;;;10.14;100.00;97623.38;5030067;28;1284;-70
2024/04/05 05:13:12;;;;;;;;;;;10.80;99.90;;;10.08;100.00;97634.84;5021745;28;1992;-71
2024/04/05 05:15:41;;;;;;;;;;;10.80;99.90;;;10.09;100.00;97633.94;5029608;28;2006;-70
2024/04/05 05:18:08;;;;;;;;;;;10.80;99.90;;;10.16;100.00;97637.13;5020027;28;2321;-71
2024/04/05 05:20:34;;;;;;;;;;;10.80;99.90;;;10.22;100.00;97642.91;5011144;28;1770;-70
2024/04/05 05:23:01;;;;;;;;;;;10.80;99.90;;;10.08;100.00;97642.63;5029938;28;1574;-70
2024/04/05 05:25:27;;;;;;;;;;;10.70;99.90;;;10.08;100.00;97649.53;5023138;28;1432;-71
2024/04/05 05:27:53;;;;;;;;;;;10.60;99.90;;;9.89;100.00;97649.44;5029708;28;1569;-70
2024/04/05 05:30:20;;;;;;;;;;;10.60;99.90;;;9.97;100.00;97647.41;5012081;28;1996;-71
2024/04/05 05:32:47;;;;;;;;;;;10.50;99.90;;;10.16;100.00;97650.94;5027652;28;1906;-70
2024/04/05 05:35:13;;;;;;;;;;;10.60;99.90;;;10.38;100.00;97644.94;5027297;28;1452;-70
2024/04/05 05:37:38;;;;;;;;;;;10.70;99.90;;;10.45;100.00;97657.59;5030098;28;1579;-70
2024/04/05 05:40:05;;;;;;;;;;;10.80;99.90;;;10.55;100.00;97647.66;5011567;28;1630;-71
2024/04/05 05:42:31;;;;;;;;;;;10.80;99.90;;;10.65;100.00;97646.38;5029016;28;1558;-71
2024/04/05 05:44:57;;;;;;;;;;;11.00;99.90;;;10.75;100.00;97653.78;5028682;28;3461;-71
2024/04/05 05:47:23;;;;;;;;;;;11.10;99.90;;;10.87;100.00;97651.50;5030314;28;1829;-71
2024/04/05 05:49:49;;;;;;;;;;;11.10;99.90;;;10.88;100.00;97639.38;5031116;28;1761;-70
2024/04/05 05:52:16;;;;;;;;;;;11.20;99.90;;;10.95;100.00;97627.81;5027600;28;2460;-70
2024/04/05 05:54:42;;;;;;;;;;;11.30;99.90;;;11.15;100.00;97626.94;5012392;28;2378;-71
2024/04/05 05:57:07;;;;;;;;;;;11.40;99.90;;;11.27;100.00;97623.81;5012035;28;1614;-71
2024/04/05 05:59:33;;;;;;;;;;;11.60;99.90;;;11.58;100.00;97617.19;5032807;28;1744;-71
2024/04/05 06:01:59;;;;;;;;;;;11.80;99.90;;;11.74;100.00;97619.94;5028078;28;1570;-71
2024/04/05 06:04:25;;;;;;;;;;;12.00;99.90;;;11.83;100.00;97618.66;5031014;28;1800;-70
2024/04/05 06:06:51;;;;;;;;;;;12.10;99.90;;;11.82;100.00;97615.22;5030123;28;1261;-71
2024/04/05 06:09:18;;;;;;;;;;;12.20;99.90;;;11.97;100.00;97608.47;5020404;28;1867;-70
2024/04/05 06:11:47;;;;;;;;;;;12.30;99.90;;;11.92;100.00;97600.88;5030591;28;1620;-71
2024/04/05 06:14:14;;;;;;;;;;;12.40;99.90;;;12.06;100.00;97594.19;5026754;28;1992;-71
2024/04/05 06:16:40;;;;;;;;;;;12.50;99.90;;;12.18;100.00;97590.16;5026468;28;1668;-71
2024/04/05 06:19:06;;;;;;;;;;;12.50;99.90;;;12.10;100.00;97585.31;5027601;28;1649;-71
2024/04/05 06:21:32;;;;;;;;;;;12.60;99.90;;;12.20;100.00;97570.09;5010136;28;3123;-71
2024/04/05 06:24:01;;;;;;;;;;;12.70;99.90;;;12.24;100.00;97574.25;5011566;28;1668;-70
2024/04/05 06:26:27;;;;;;;;;;;12.70;99.90;;;12.31;100.00;97566.03;5027083;28;1513;-71
2024/04/05 06:28:53;;;;;;;;;;;12.80;99.90;;;12.49;100.00;97545.22;5028948;28;1674;-71
2024/04/05 06:31:19;;;;;;;;;;;12.90;99.90;;;12.41;100.00;97536.97;5014206;28;1854;-71
2024/04/05 06:33:46;;;;;;;;;;;12.90;99.90;;;12.41;100.00;97531.78;5036429;28;1898;-71
2024/04/05 06:36:12;;;;;;;;;;;12.90;99.90;;;12.44;100.00;97531.59;5028547;28;2263;-71
2024/04/05 06:38:38;;;;;;;;;;;13.00;99.90;;;12.51;100.00;97528.59;5028454;28;1595;-71
2024/04/05 06:41:04;;;;;;;;;;;13.00;99.90;;;12.58;100.00;97523.91;5029717;28;1673;-70
2024/04/05 06:43:31;;;;;;;;;;;13.10;99.90;;;12.62;100.00;97514.19;5030734;28;1784;-71
2024/04/05 06:45:57;;;;;;;;;;;13.10;99.90;;;12.64;100.00;97500.19;5024323;28;1398;-71
2024/04/05 06:48:23;;;;;;;;;;;13.20;99.90;;;12.69;100.00;97507.75;5028502;28;1609;-71
2024/04/05 06:50:49;;;;;;;;;;;13.30;99.90;;;12.77;100.00;97514.25;5028141;28;2037;-70
2024/04/05 06:53:20;;;;;;;;;;;13.30;99.90;;;12.84;100.00;97501.75;5028355;28;1906;-71
2024/04/05 06:55:50;;;;;;;;;;;13.40;99.90;;;12.92;100.00;97486.53;5027850;28;1648;-71
2024/04/05 06:58:17;;;;;;;;;;;13.50;99.90;;;12.90;100.00;97496.19;5008473;28;1747;-71
2024/04/05 07:00:43;;;;;;;;;;;13.50;99.90;;;12.99;100.00;97505.28;5026992;28;1703;-71
2024/04/05 07:03:10;;;;;;;;;;;13.60;99.90;;;12.99;100.00;97507.88;5030736;28;1358;-71
2024/04/05 07:05:36;;;;;;;;;;;13.60;99.90;;;13.08;100.00;97511.78;5027759;28;3428;-71
2024/04/05 07:08:02;;;;;;;;;;;13.60;99.90;;;13.06;100.00;97505.78;5011339;28;1602;-71
2024/04/05 07:10:28;;;;;;;;;;;13.70;99.90;;;13.08;100.00;97501.34;5027637;28;1265;-71
2024/04/05 07:12:54;;;;;;;;;;;13.70;99.90;;;13.19;100.00;97494.63;5012166;28;1977;-69
2024/04/05 07:15:20;;;;;;;;;;;13.80;99.90;;;13.29;100.00;97491.53;5025711;28;1361;-71
2024/04/05 07:17:51;;;;;;;;;;;13.80;99.90;;;13.47;100.00;97481.88;5028170;28;2531;-71
2024/04/05 07:20:24;;;;;;;;;;;14.00;99.90;;;13.41;100.00;97480.47;5010865;28;2038;-71
2024/04/05 07:22:52;;;;;;;;;;;;;;;13.60;100.00;97472.44;5026063;28;2564;-70
2024/04/05 07:25:24;;;;;;;;;;;14.10;99.90;;;13.62;100.00;97462.75;5027902;28;1573;-71
2024/04/05 07:27:54;;;;;;;;;;;14.20;99.90;;;13.67;100.00;97442.47;5024624;28;1665;-71
2024/04/05 07:30:22;;;;;;;;;;;14.30;99.90;;;13.88;100.00;97452.59;5027647;28;1614;-70
2024/04/05 07:32:51;;;;;;;;;;;14.40;99.90;;;13.76;100.00;97436.72;5010070;28;2430;-69
2024/04/05 07:35:18;;;;;;;;;;;14.40;99.90;;;13.84;100.00;97430.22;5036793;28;1614;-71
2024/04/05 07:37:50;;;;;;;;;;;14.40;99.90;;;13.86;100.00;97437.03;5012401;28;1888;-71
2024/04/05 07:40:20;;;;;;;;;;;14.40;99.90;;;13.77;100.00;97435.78;5028964;28;1651;-71
2024/04/05 07:42:50;;;;;;;;;;;14.40;99.90;;;13.96;100.00;97438.19;5025185;28;1611;-71
2024/04/05 07:45:19;;;;;;;;;;;14.40;99.90;;;14.30;100.00;97445.78;5017507;28;3333;-71
2024/04/05 07:47:49;;;;;;;;;;;14.50;99.90;;;14.38;100.00;97449.59;5031004;28;1728;-71
2024/04/05 07:50:15;;;;;;;;;;;14.60;99.90;;;14.54;100.00;97452.16;5039153;28;1634;-71
2024/04/05 07:52:42;;;;;;;;;;;14.80;99.90;;;14.60;100.00;97453.59;5031974;28;2483;-71
2024/04/05 07:55:09;;;;;;;;;;;15.00;99.90;;;14.66;100.00;97447.97;5030186;28;1666;-71
2024/04/05 07:57:39;;;;;;;;;;;15.10;99.90;;;14.89;100.00;97446.53;5031427;28;1439;-71
2024/04/05 08:00:07;;;;;;;;;;;15.30;99.90;;;14.99;100.00;97442.44;5016657;28;1554;-71
2024/04/05 08:02:34;;;;;;;;;;;15.40;99.90;;;14.94;100.00;97441.91;5030552;28;1598;-71
2024/04/05 08:05:00;;;;;;;;;;;15.50;99.90;;;15.25;100.00;97440.78;5030421;28;1998;-71
2024/04/05 08:07:26;;;;;;;;;;;15.70;99.90;;;15.61;100.00;97435.91;5031201;28;1552;-71
2024/04/05 08:09:53;;;;;;;;;;;15.80;99.90;;;16.07;100.00;97432.88;5015084;28;1726;-70
2024/04/05 08:12:19;;;;;;;;;;;16.00;99.90;;;16.35;100.00;97426.59;5014816;28;1768;-71
2024/04/05 08:14:45;;;;;;;;;;;16.30;99.90;;;16.80;100.00;97420.94;5031964;28;1857;-71
2024/04/05 08:17:14;;;;;;;;;;;16.80;99.90;;;17.02;100.00;97413.25;5034149;28;1273;-69
2024/04/05 08:19:40;;;;;;;;;;;17.30;99.90;;;17.74;100.00;97417.66;5019684;28;1974;-71
2024/04/05 08:22:06;;;;;;;;;;;17.90;99.90;;;17.03;100.00;97403.59;5030264;28;1534;-71
2024/04/05 08:24:36;;;;;;;;;;;18.30;99.90;;;17.35;100.00;97401.25;5030826;28;1616;-71
2024/04/05 08:27:02;;;;;;;;;;;18.70;99.90;;;17.23;100.00;97404.78;5031264;28;1380;-71
2024/04/05 08:29:28;;;;;;;;;;;18.90;99.90;;;16.98;100.00;97409.16;5029789;28;1802;-70
2024/04/05 08:31:54;;;;;;;;;;;19.00;99.90;;;17.48;100.00;97409.09;5032332;28;1595;-71
2024/04/05 08:34:20;;;;;;;;;;;19.30;99.90;;;17.24;100.00;97415.19;5029204;28;3066;-71
2024/04/05 08:36:49;;;;;;;;;;;19.40;99.90;;;17.55;100.00;97408.50;5032831;28;1618;-71
2024/04/05 08:39:19;;;;;;;;;;;;;;;17.87;100.00;97401.84;5023988;28;1503;-71
2024/04/05 08:41:46;;;;;;;;;;;20.30;99.90;;;18.25;100.00;97406.00;5029865;28;1350;-70
2024/04/05 08:44:12;;;;;;;;;;;20.70;99.90;;;18.84;100.00;97390.03;5031231;28;1500;-71
2024/04/05 08:46:40;;;;;;;;;;;20.90;99.90;;;18.87;100.00;97392.41;5042080;28;1840;-71
2024/04/05 08:49:07;;;;;;;;;;;20.90;99.90;;;18.46;100.00;97367.56;5027309;28;2014;-71
2024/04/05 08:51:42;;;;;;;;;;;20.90;99.90;;;17.81;100.00;97376.88;5027945;28;1634;-71
2024/04/05 08:54:08;;;;;;;;;;;20.30;99.90;;;17.21;100.00;97391.78;5029178;28;2017;-70
2024/04/05 08:56:34;;;;;;;;;;;;;;;17.60;100.00;97395.03;5014112;28;1527;-70
2024/04/05 08:59:03;;;;;;;;;;;19.00;99.90;;;17.16;100.00;97403.56;5013696;28;1811;-70
2024/04/05 09:01:29;;;;;;;;;;;18.90;99.90;;;17.33;100.00;97398.78;5028019;28;2131;-70
2024/04/05 09:03:55;;;;;;;;;;;18.40;99.90;;;17.41;100.00;97410.47;5027756;28;1237;-71
2024/04/05 09:06:21;;;;;;;;;;;18.40;99.90;;;17.98;100.00;97376.47;5027617;28;1433;-70
2024/04/05 09:08:52;;;;;;;;;;;19.00;99.90;;;18.07;100.00;97372.31;5032230;28;1319;-70
2024/04/05 09:11:25;;;;;;;;;;;19.40;99.90;;;17.49;100.00;97385.38;5028155;28;1675;-70
2024/04/05 09:13:58;;;;;;;;;;;19.90;99.90;;;18.36;100.00;97385.00;5027989;28;1898;-70
2024/04/05 09:16:25;;;;;;;;;;;20.10;99.90;;;18.90;100.00;97381.63;5019791;28;2970;-71
2024/04/05 09:18:52;;;;;;;;;;;19.60;99.90;;;18.74;100.00;97375.91;5010120;28;1936;-70
2024/04/05 09:21:18;;;;;;;;;;;20.00;99.90;;;18.99;100.00;97353.78;5043630;28;1765;-71
2024/04/05 09:23:46;;;;;;;;;;;20.20;99.90;;;19.10;100.00;97374.78;5009541;28;1867;-71
2024/04/05 09:26:18;;;;;;;;;;;20.50;99.90;;;19.01;100.00;97363.22;5027519;28;1852;-71
2024/04/05 09:28:46;;;;;;;;;;;20.70;99.90;;;19.40;100.00;97355.66;5029226;28;1466;-71
2024/04/05 09:31:18;;;;;;;;;;;21.10;99.90;;;19.23;100.00;97358.84;5013089;28;1994;-71
2024/04/05 09:33:44;;;;;;;;;;;21.20;99.90;;;19.47;100.00;97342.84;5028414;28;1922;-70
2024/04/05 09:36:13;;;;;;;;;;;21.40;99.90;;;19.43;100.00;97351.94;5029887;28;1787;-70
2024/04/05 09:38:39;;;;;;;;;;;21.50;99.90;;;19.68;100.00;97332.31;5012070;28;1535;-71
2024/04/05 09:41:05;;;;;;;;;;;;;;;19.77;100.00;97334.22;5029187;28;1408;-70
2024/04/05 09:43:31;;;;;;;;;;;20.90;99.90;;;19.56;100.00;97325.44;4998422;28;1595;-71
2024/04/05 09:45:59;;;;;;;;;;;20.90;99.90;;;19.50;100.00;97320.69;5012260;28;2173;-70
2024/04/05 09:48:31;;;;;;;;;;;21.00;99.90;;;20.32;100.00;97323.44;5012364;28;1651;-70
2024/04/05 09:51:00;;;;;;;;;;;20.30;99.90;;;19.67;100.00;97330.66;5027992;28;2380;-70
2024/04/05 09:53:29;;;;;;;;;;;20.90;99.90;;;20.24;100.00;97317.97;5011467;28;3399;-71
2024/04/05 09:55:57;;;;;;;;;;;21.00;99.90;;;20.38;100.00;97304.44;5031868;28;1860;-71
2024/04/05 09:58:24;;;;;;;;;;;20.50;99.90;;;20.39;100.00;97306.13;5029099;28;1261;-71
2024/04/05 10:00:52;;;;;;;;;;;21.20;99.90;;;20.22;100.00;97306.72;5026658;28;1844;-71
2024/04/05 10:03:18;;;;;;;;;;;21.20;99.90;;;20.02;100.00;97318.97;5018411;28;1907;-70
2024/04/05 10:05:45;;;;;;;;;;;21.20;99.90;;;19.76;100.00;97308.03;5012284;28;1744;-71
2024/04/05 10:08:15;;;;;;;;;;;20.90;99.90;;;20.10;100.00;97321.81;5029385;28;1981;-71
2024/04/05 10:10:41;;;;;;;;;;;20.00;99.90;;;19.77;100.00;97334.22;5043333;28;1560;-70
2024/04/05 10:13:14;;;;;;;;;;;19.70;99.90;;;19.40;100.00;97347.78;5025820;28;1985;-71
2024/04/05 10:15:54;;;;;;;;;;;19.70;99.90;;;19.09;100.00;97343.34;5012943;28;1739;-71
2024/04/05 10:18:39;;;;;;;;;;;19.70;99.90;;;19.52;100.00;97335.38;4993695;28;1562;-71
2024/04/05 10:21:11;;;;;;;;;;;20.00;99.90;;;19.37;100.00;97336.69;5028842;28;2002;-70
2024/04/05 10:23:39;;;;;;;;;;;20.30;99.90;;;19.80;100.00;97326.06;5027425;28;1746;-70
2024/04/05 10:26:13;;;;;;;;;;;20.50;99.90;;;20.39;100.00;97334.25;5010902;28;1692;-70
2024/04/05 10:28:42;;;;;;;;;;;20.20;99.90;;;20.10;100.00;97326.25;5026535;28;1547;-71
2024/04/05 10:31:11;;;;;;;;;;;20.50;99.90;;;20.81;100.00;97332.34;5028975;28;1488;-70
2024/04/05 10:33:40;;;;;;;;;;;20.30;99.90;;;20.38;100.00;97311.50;5028269;28;1979;-70
2024/04/05 10:36:07;;;;;;;;;;;20.20;99.90;;;20.12;100.00;97346.22;5010316;28;3223;-70
2024/04/05 10:38:35;;;;;;;;;;;20.20;99.90;;;19.89;100.00;97371.03;5027305;28;1872;-70
2024/04/05 10:41:03;;;;;;;;;;;20.50;99.90;;;20.04;100.00;97352.13;5026564;28;1858;-70
2024/04/05 10:43:30;;;;;;;;;;;20.50;99.90;;;19.68;100.00;97376.25;5011901;28;1563;-70
2024/04/05 10:45:57;;;;;;;;;;;19.80;99.90;;;19.20;100.00;97343.31;5029317;28;1677;-70
2024/04/05 10:48:24;;;;;;;;;;;19.60;99.90;;;19.29;100.00;97353.06;5010336;28;1581;-69
2024/04/05 10:50:53;;;;;;;;;;;19.60;99.90;;;18.69;100.00;97343.88;5010436;28;2392;-69
2024/04/05 10:53:20;;;;;;;;;;;;;;;18.76;100.00;97393.22;5037769;28;1989;-70
2024/04/05 10:55:47;;;;;;;;;;;19.40;99.90;;;18.87;100.00;97350.34;5011302;28;1573;-69
2024/04/05 10:58:14;;;;;;;;;;;19.40;99.90;;;18.89;100.00;97344.97;5028417;28;1814;-70
2024/04/05 11:00:40;;;;;;;;;;;19.10;99.90;;;18.70;100.00;97372.69;5027080;28;1748;-70
2024/04/05 11:03:10;;;;;;;;;;;18.90;99.90;;;18.87;100.00;97342.44;5026164;28;2427;-71
2024/04/05 11:05:36;;;;;;;;;;;19.10;99.90;;;18.92;100.00;97335.00;5030176;28;1629;-69
2024/04/05 11:08:04;;;;;;;;;;;19.40;99.90;;;19.40;100.00;97344.31;5027170;28;1344;-69
2024/04/05 11:10:34;;;;;;;;;;;19.60;99.90;;;19.32;100.00;97333.59;5025516;28;1644;-71
2024/04/05 11:13:09;;;;;;;;;;;19.50;99.90;;;19.34;100.00;97316.72;5030476;28;1984;-71
2024/04/05 11:15:35;;;;;;;;;;;19.50;99.90;;;19.25;100.00;97322.72;5026769;28;3197;-71
2024/04/05 11:18:05;;;;;;;;;;;19.60;99.90;;;19.27;100.00;97330.47;5008157;28;2494;-71
2024/04/05 11:20:32;;;;;;;;;;;19.60;99.90;;;19.06;100.00;97307.59;5025964;28;1444;-71